sensor_id;sensor_type;location;lat;lon;timestamp;temperature;humidity
1447;DHT22;717;51.522;7.266;2022-09-09T00:02:14;20.70;94.80
1447;DHT22;717;51.522;7.266;2022-09-09T00:04:51;20.70;94.90
1447;DHT22;717;51.522;7.266;2022-09-09T00:07:27;20.70;94.80
1447;DHT22;717;51.522;7.266;2022-09-09T00:10:04;20.70;94.80
1447;DHT22;717;51.522;7.266;2022-09-09T00:12:40;20.70;94.90
1447;DHT22;717;51.522;7.266;2022-09-09T00:15:13;20.70;94.80
1447;DHT22;717;51.522;7.266;2022-09-09T00:17:45;20.70;94.90
1447;DHT22;717;51.522;7.266;2022-09-09T00:20:17;20.70;94.90
1447;DHT22;717;51.522;7.266;2022-09-09T00:22:55;20.70;95.10
1447;DHT22;717;51.522;7.266;2022-09-09T00:25:29;20.70;95.00
1447;DHT22;717;51.522;7.266;2022-09-09T00:27:59;20.70;95.10
1447;DHT22;717;51.522;7.266;2022-09-09T00:30:31;20.70;95.10
1447;DHT22;717;51.522;7.266;2022-09-09T00:33:00;20.70;95.50
1447;DHT22;717;51.522;7.266;2022-09-09T00:35:30;20.70;95.30
1447;DHT22;717;51.522;7.266;2022-09-09T00:38:03;20.70;95.30
1447;DHT22;717;51.522;7.266;2022-09-09T00:40:34;20.70;95.30
1447;DHT22;717;51.522;7.266;2022-09-09T00:43:18;20.70;95.20
1447;DHT22;717;51.522;7.266;2022-09-09T00:46:11;20.70;95.30
1447;DHT22;717;51.522;7.266;2022-09-09T00:48:47;20.70;95.20
1447;DHT22;717;51.522;7.266;2022-09-09T00:51:22;20.70;95.20
1447;DHT22;717;51.522;7.266;2022-09-09T00:54:07;20.70;95.30
1447;DHT22;717;51.522;7.266;2022-09-09T00:56:39;20.70;95.30
1447;DHT22;717;51.522;7.266;2022-09-09T00:59:24;20.80;95.30
1447;DHT22;717;51.522;7.266;2022-09-09T01:01:53;20.70;95.20
1447;DHT22;717;51.522;7.266;2022-09-09T01:04:28;20.80;95.30
1447;DHT22;717;51.522;7.266;2022-09-09T01:07:03;20.80;95.30
1447;DHT22;717;51.522;7.266;2022-09-09T01:09:46;20.80;95.30
1447;DHT22;717;51.522;7.266;2022-09-09T01:12:27;20.80;95.30
1447;DHT22;717;51.522;7.266;2022-09-09T01:15:03;20.80;95.30
1447;DHT22;717;51.522;7.266;2022-09-09T01:17:44;20.80;95.20
1447;DHT22;717;51.522;7.266;2022-09-09T01:20:16;20.90;95.30
1447;DHT22;717;51.522;7.266;2022-09-09T01:22:55;20.90;95.20
1447;DHT22;717;51.522;7.266;2022-09-09T01:28:22;20.90;95.20
1447;DHT22;717;51.522;7.266;2022-09-09T01:30:51;20.90;95.20
1447;DHT22;717;51.522;7.266;2022-09-09T01:33:18;21.00;95.20
1447;DHT22;717;51.522;7.266;2022-09-09T01:35:48;21.00;95.20
1447;DHT22;717;51.522;7.266;2022-09-09T01:38:17;21.00;95.20
1447;DHT22;717;51.522;7.266;2022-09-09T01:40:44;21.00;95.30
1447;DHT22;717;51.522;7.266;2022-09-09T01:43:11;21.00;95.20
1447;DHT22;717;51.522;7.266;2022-09-09T01:45:41;21.00;95.30
1447;DHT22;717;51.522;7.266;2022-09-09T01:48:08;21.10;95.20
1447;DHT22;717;51.522;7.266;2022-09-09T01:50:35;21.10;95.20
1447;DHT22;717;51.522;7.266;2022-09-09T01:53:03;21.10;95.20
1447;DHT22;717;51.522;7.266;2022-09-09T01:55:32;21.10;95.20
1447;DHT22;717;51.522;7.266;2022-09-09T01:58:11;21.20;95.30
1447;DHT22;717;51.522;7.266;2022-09-09T02:00:50;21.20;95.30
1447;DHT22;717;51.522;7.266;2022-09-09T02:03:24;21.20;95.30
1447;DHT22;717;51.522;7.266;2022-09-09T02:05:57;21.20;95.40
1447;DHT22;717;51.522;7.266;2022-09-09T02:08:29;21.20;95.40
1447;DHT22;717;51.522;7.266;2022-09-09T02:11:03;21.20;95.80
1447;DHT22;717;51.522;7.266;2022-09-09T02:13:34;21.20;95.40
1447;DHT22;717;51.522;7.266;2022-09-09T02:16:06;21.20;95.50
1447;DHT22;717;51.522;7.266;2022-09-09T02:18:36;21.20;95.50
1447;DHT22;717;51.522;7.266;2022-09-09T02:21:05;21.20;95.40
1447;DHT22;717;51.522;7.266;2022-09-09T02:23:34;21.20;95.50
1447;DHT22;717;51.522;7.266;2022-09-09T02:26:02;21.20;95.50
1447;DHT22;717;51.522;7.266;2022-09-09T02:28:32;21.20;95.40
1447;DHT22;717;51.522;7.266;2022-09-09T02:31:01;21.30;95.50
1447;DHT22;717;51.522;7.266;2022-09-09T02:33:33;21.30;95.50
1447;DHT22;717;51.522;7.266;2022-09-09T02:36:02;21.30;95.40
1447;DHT22;717;51.522;7.266;2022-09-09T02:38:35;21.30;95.40
1447;DHT22;717;51.522;7.266;2022-09-09T02:41:03;21.30;95.40
1447;DHT22;717;51.522;7.266;2022-09-09T02:43:32;21.30;95.40
1447;DHT22;717;51.522;7.266;2022-09-09T02:46:06;21.30;95.40
1447;DHT22;717;51.522;7.266;2022-09-09T02:48:40;21.30;95.40
1447;DHT22;717;51.522;7.266;2022-09-09T02:51:14;21.30;95.40
1447;DHT22;717;51.522;7.266;2022-09-09T02:53:46;21.30;95.50
1447;DHT22;717;51.522;7.266;2022-09-09T02:56:16;21.30;95.60
1447;DHT22;717;51.522;7.266;2022-09-09T02:58:44;21.20;95.50
1447;DHT22;717;51.522;7.266;2022-09-09T03:01:11;21.30;95.60
1447;DHT22;717;51.522;7.266;2022-09-09T03:03:41;21.30;95.60
1447;DHT22;717;51.522;7.266;2022-09-09T03:06:09;21.30;95.60
1447;DHT22;717;51.522;7.266;2022-09-09T03:08:37;21.30;95.60
1447;DHT22;717;51.522;7.266;2022-09-09T03:11:04;21.30;95.60
1447;DHT22;717;51.522;7.266;2022-09-09T03:13:31;21.20;95.60
1447;DHT22;717;51.522;7.266;2022-09-09T03:15:58;21.20;95.60
1447;DHT22;717;51.522;7.266;2022-09-09T03:18:25;21.20;95.60
1447;DHT22;717;51.522;7.266;2022-09-09T03:20:54;21.20;95.70
1447;DHT22;717;51.522;7.266;2022-09-09T03:23:21;21.20;95.70
1447;DHT22;717;51.522;7.266;2022-09-09T03:25:48;21.20;95.60
1447;DHT22;717;51.522;7.266;2022-09-09T03:28:15;21.20;95.60
1447;DHT22;717;51.522;7.266;2022-09-09T03:30:42;21.20;95.60
1447;DHT22;717;51.522;7.266;2022-09-09T03:33:09;21.20;95.70
1447;DHT22;717;51.522;7.266;2022-09-09T03:35:36;21.20;95.70
1447;DHT22;717;51.522;7.266;2022-09-09T03:38:06;21.20;95.70
1447;DHT22;717;51.522;7.266;2022-09-09T03:40:33;21.20;95.70
1447;DHT22;717;51.522;7.266;2022-09-09T03:43:00;21.10;95.70
1447;DHT22;717;51.522;7.266;2022-09-09T03:45:27;21.20;95.70
1447;DHT22;717;51.522;7.266;2022-09-09T03:47:53;21.10;95.60
1447;DHT22;717;51.522;7.266;2022-09-09T03:50:20;21.20;95.70
1447;DHT22;717;51.522;7.266;2022-09-09T03:52:47;21.20;95.60
1447;DHT22;717;51.522;7.266;2022-09-09T03:55:15;21.10;95.60
1447;DHT22;717;51.522;7.266;2022-09-09T03:57:42;21.10;95.50
1447;DHT22;717;51.522;7.266;2022-09-09T04:00:09;21.10;95.50
1447;DHT22;717;51.522;7.266;2022-09-09T04:02:36;21.10;95.50
1447;DHT22;717;51.522;7.266;2022-09-09T04:05:03;21.10;95.40
1447;DHT22;717;51.522;7.266;2022-09-09T04:07:31;21.10;95.40
1447;DHT22;717;51.522;7.266;2022-09-09T04:09:58;21.10;95.40
1447;DHT22;717;51.522;7.266;2022-09-09T04:12:26;21.10;95.40
1447;DHT22;717;51.522;7.266;2022-09-09T04:14:53;21.10;95.40
1447;DHT22;717;51.522;7.266;2022-09-09T04:17:19;21.10;95.50
1447;DHT22;717;51.522;7.266;2022-09-09T04:19:46;21.10;95.50
1447;DHT22;717;51.522;7.266;2022-09-09T04:22:14;21.10;95.50
1447;DHT22;717;51.522;7.266;2022-09-09T04:24:41;21.10;95.50
1447;DHT22;717;51.522;7.266;2022-09-09T04:27:08;21.10;95.50
1447;DHT22;717;51.522;7.266;2022-09-09T04:29:36;21.10;95.50
1447;DHT22;717;51.522;7.266;2022-09-09T04:32:02;21.10;95.60
1447;DHT22;717;51.522;7.266;2022-09-09T04:34:30;21.10;95.60
1447;DHT22;717;51.522;7.266;2022-09-09T04:36:57;21.10;95.50
1447;DHT22;717;51.522;7.266;2022-09-09T04:39:24;21.10;95.50
1447;DHT22;717;51.522;7.266;2022-09-09T04:41:50;21.10;95.60
1447;DHT22;717;51.522;7.266;2022-09-09T04:44:18;21.10;95.60
1447;DHT22;717;51.522;7.266;2022-09-09T04:46:47;21.10;95.60
1447;DHT22;717;51.522;7.266;2022-09-09T04:49:13;21.10;95.60
1447;DHT22;717;51.522;7.266;2022-09-09T04:51:40;21.10;95.50
1447;DHT22;717;51.522;7.266;2022-09-09T04:54:07;21.10;95.50
1447;DHT22;717;51.522;7.266;2022-09-09T04:56:34;21.10;95.50
1447;DHT22;717;51.522;7.266;2022-09-09T04:59:01;21.10;95.50
1447;DHT22;717;51.522;7.266;2022-09-09T05:01:28;21.10;95.50
1447;DHT22;717;51.522;7.266;2022-09-09T05:03:56;21.10;95.50
1447;DHT22;717;51.522;7.266;2022-09-09T05:06:24;21.10;95.50
1447;DHT22;717;51.522;7.266;2022-09-09T05:08:51;21.10;95.60
1447;DHT22;717;51.522;7.266;2022-09-09T05:11:20;21.10;95.50
1447;DHT22;717;51.522;7.266;2022-09-09T05:13:47;21.20;95.60
1447;DHT22;717;51.522;7.266;2022-09-09T05:16:16;21.20;95.60
1447;DHT22;717;51.522;7.266;2022-09-09T05:18:43;21.20;95.60
1447;DHT22;717;51.522;7.266;2022-09-09T05:21:14;21.20;95.60
1447;DHT22;717;51.522;7.266;2022-09-09T05:23:41;21.20;95.60
1447;DHT22;717;51.522;7.266;2022-09-09T05:26:12;21.20;96.00
1447;DHT22;717;51.522;7.266;2022-09-09T05:28:40;21.20;95.70
1447;DHT22;717;51.522;7.266;2022-09-09T05:31:08;21.20;95.70
1447;DHT22;717;51.522;7.266;2022-09-09T05:33:37;21.20;95.70
1447;DHT22;717;51.522;7.266;2022-09-09T05:36:07;21.20;95.70
1447;DHT22;717;51.522;7.266;2022-09-09T05:38:37;21.30;95.70
1447;DHT22;717;51.522;7.266;2022-09-09T05:41:05;21.30;95.70
1447;DHT22;717;51.522;7.266;2022-09-09T05:43:32;21.30;95.70
1447;DHT22;717;51.522;7.266;2022-09-09T05:46:02;21.30;95.70
1447;DHT22;717;51.522;7.266;2022-09-09T05:48:30;21.30;95.70
1447;DHT22;717;51.522;7.266;2022-09-09T05:50:57;21.30;95.80
1447;DHT22;717;51.522;7.266;2022-09-09T05:53:24;21.20;95.70
1447;DHT22;717;51.522;7.266;2022-09-09T05:55:59;21.20;95.70
1447;DHT22;717;51.522;7.266;2022-09-09T05:58:29;21.30;95.80
1447;DHT22;717;51.522;7.266;2022-09-09T06:01:01;21.30;95.80
1447;DHT22;717;51.522;7.266;2022-09-09T06:03:28;21.30;95.90
1447;DHT22;717;51.522;7.266;2022-09-09T06:05:59;21.30;95.90
1447;DHT22;717;51.522;7.266;2022-09-09T06:08:26;21.30;95.90
1447;DHT22;717;51.522;7.266;2022-09-09T06:10:52;21.30;95.90
1447;DHT22;717;51.522;7.266;2022-09-09T06:13:21;21.30;95.90
1447;DHT22;717;51.522;7.266;2022-09-09T06:15:51;21.30;95.90
1447;DHT22;717;51.522;7.266;2022-09-09T06:18:18;21.30;95.90
1447;DHT22;717;51.522;7.266;2022-09-09T06:20:54;21.30;95.90
1447;DHT22;717;51.522;7.266;2022-09-09T06:23:20;21.30;96.00
1447;DHT22;717;51.522;7.266;2022-09-09T06:25:48;21.30;95.90
1447;DHT22;717;51.522;7.266;2022-09-09T06:28:14;21.30;95.90
1447;DHT22;717;51.522;7.266;2022-09-09T06:30:43;21.30;96.00
1447;DHT22;717;51.522;7.266;2022-09-09T06:33:10;21.30;96.00
1447;DHT22;717;51.522;7.266;2022-09-09T06:35:36;21.30;96.00
1447;DHT22;717;51.522;7.266;2022-09-09T06:38:03;21.30;96.00
1447;DHT22;717;51.522;7.266;2022-09-09T06:40:31;21.30;96.00
1447;DHT22;717;51.522;7.266;2022-09-09T06:42:59;21.40;96.10
1447;DHT22;717;51.522;7.266;2022-09-09T06:45:26;21.30;96.00
1447;DHT22;717;51.522;7.266;2022-09-09T06:47:56;21.40;96.00
1447;DHT22;717;51.522;7.266;2022-09-09T06:50:23;21.40;96.00
1447;DHT22;717;51.522;7.266;2022-09-09T06:52:52;21.40;96.00
1447;DHT22;717;51.522;7.266;2022-09-09T06:55:19;21.40;96.10
1447;DHT22;717;51.522;7.266;2022-09-09T06:57:46;21.40;96.10
1447;DHT22;717;51.522;7.266;2022-09-09T07:00:14;21.40;96.10
1447;DHT22;717;51.522;7.266;2022-09-09T07:02:40;21.50;96.20
1447;DHT22;717;51.522;7.266;2022-09-09T07:05:09;21.40;96.10
1447;DHT22;717;51.522;7.266;2022-09-09T07:07:36;21.50;96.20
1447;DHT22;717;51.522;7.266;2022-09-09T07:10:03;21.50;96.20
1447;DHT22;717;51.522;7.266;2022-09-09T07:12:30;21.50;96.20
1447;DHT22;717;51.522;7.266;2022-09-09T07:14:57;21.50;96.20
1447;DHT22;717;51.522;7.266;2022-09-09T07:17:24;21.50;96.30
1447;DHT22;717;51.522;7.266;2022-09-09T07:19:52;21.50;96.30
1447;DHT22;717;51.522;7.266;2022-09-09T07:22:20;21.50;96.20
1447;DHT22;717;51.522;7.266;2022-09-09T07:24:48;21.50;96.20
1447;DHT22;717;51.522;7.266;2022-09-09T07:27:16;21.50;96.20
1447;DHT22;717;51.522;7.266;2022-09-09T07:29:43;21.40;96.20
1447;DHT22;717;51.522;7.266;2022-09-09T07:32:11;21.50;96.20
1447;DHT22;717;51.522;7.266;2022-09-09T07:34:37;21.40;96.20
1447;DHT22;717;51.522;7.266;2022-09-09T07:37:04;21.50;96.20
1447;DHT22;717;51.522;7.266;2022-09-09T07:39:33;21.50;96.20
1447;DHT22;717;51.522;7.266;2022-09-09T07:41:59;21.50;96.20
1447;DHT22;717;51.522;7.266;2022-09-09T07:44:26;21.50;96.20
1447;DHT22;717;51.522;7.266;2022-09-09T07:46:53;21.50;96.10
1447;DHT22;717;51.522;7.266;2022-09-09T07:49:20;21.60;96.10
1447;DHT22;717;51.522;7.266;2022-09-09T07:51:47;21.50;96.00
1447;DHT22;717;51.522;7.266;2022-09-09T07:54:16;21.50;95.90
1447;DHT22;717;51.522;7.266;2022-09-09T07:56:47;21.50;95.90
1447;DHT22;717;51.522;7.266;2022-09-09T07:59:15;21.60;95.70
1447;DHT22;717;51.522;7.266;2022-09-09T08:01:43;21.60;95.60
1447;DHT22;717;51.522;7.266;2022-09-09T08:04:12;21.60;95.50
1447;DHT22;717;51.522;7.266;2022-09-09T08:06:42;21.60;95.40
1447;DHT22;717;51.522;7.266;2022-09-09T08:09:09;21.60;95.40
1447;DHT22;717;51.522;7.266;2022-09-09T08:11:37;21.60;95.30
1447;DHT22;717;51.522;7.266;2022-09-09T08:14:07;21.60;95.20
1447;DHT22;717;51.522;7.266;2022-09-09T08:16:37;21.60;95.20
1447;DHT22;717;51.522;7.266;2022-09-09T08:19:04;21.70;95.10
1447;DHT22;717;51.522;7.266;2022-09-09T08:21:33;21.70;95.00
1447;DHT22;717;51.522;7.266;2022-09-09T08:24:01;21.70;94.90
1447;DHT22;717;51.522;7.266;2022-09-09T08:26:29;21.70;94.80
1447;DHT22;717;51.522;7.266;2022-09-09T08:29:01;21.70;94.70
1447;DHT22;717;51.522;7.266;2022-09-09T08:31:32;21.70;94.50
1447;DHT22;717;51.522;7.266;2022-09-09T08:33:59;21.70;94.50
1447;DHT22;717;51.522;7.266;2022-09-09T08:36:28;21.70;94.50
1447;DHT22;717;51.522;7.266;2022-09-09T08:38:56;21.80;94.40
1447;DHT22;717;51.522;7.266;2022-09-09T08:41:40;21.80;94.30
1447;DHT22;717;51.522;7.266;2022-09-09T08:44:18;21.80;94.10
1447;DHT22;717;51.522;7.266;2022-09-09T08:46:53;21.80;94.20
1447;DHT22;717;51.522;7.266;2022-09-09T08:49:50;21.90;94.20
1447;DHT22;717;51.522;7.266;2022-09-09T08:52:25;21.90;94.10
1447;DHT22;717;51.522;7.266;2022-09-09T08:54:58;21.90;93.90
1447;DHT22;717;51.522;7.266;2022-09-09T08:57:31;21.90;94.00
1447;DHT22;717;51.522;7.266;2022-09-09T08:59:59;21.90;94.00
1447;DHT22;717;51.522;7.266;2022-09-09T09:02:34;21.90;93.80
1447;DHT22;717;51.522;7.266;2022-09-09T09:05:12;22.00;93.80
1447;DHT22;717;51.522;7.266;2022-09-09T09:07:52;22.10;93.50
1447;DHT22;717;51.522;7.266;2022-09-09T09:10:31;22.10;93.60
1447;DHT22;717;51.522;7.266;2022-09-09T09:13:00;22.10;93.50
1447;DHT22;717;51.522;7.266;2022-09-09T09:15:31;22.20;93.50
1447;DHT22;717;51.522;7.266;2022-09-09T09:18:03;22.20;93.40
1447;DHT22;717;51.522;7.266;2022-09-09T09:20:37;22.20;93.30
1447;DHT22;717;51.522;7.266;2022-09-09T09:23:14;22.20;93.70
1447;DHT22;717;51.522;7.266;2022-09-09T09:25:44;22.30;93.20
1447;DHT22;717;51.522;7.266;2022-09-09T09:28:15;22.30;93.30
1447;DHT22;717;51.522;7.266;2022-09-09T09:30:47;22.30;93.20
1447;DHT22;717;51.522;7.266;2022-09-09T09:33:20;22.40;93.10
1447;DHT22;717;51.522;7.266;2022-09-09T09:35:48;22.40;93.00
1447;DHT22;717;51.522;7.266;2022-09-09T09:38:18;22.50;92.80
1447;DHT22;717;51.522;7.266;2022-09-09T09:40:51;22.50;92.70
1447;DHT22;717;51.522;7.266;2022-09-09T09:43:24;22.50;92.80
1447;DHT22;717;51.522;7.266;2022-09-09T09:45:51;22.50;92.60
1447;DHT22;717;51.522;7.266;2022-09-09T09:48:19;22.50;92.40
1447;DHT22;717;51.522;7.266;2022-09-09T09:50:49;22.40;92.50
1447;DHT22;717;51.522;7.266;2022-09-09T09:53:20;22.50;92.40
1447;DHT22;717;51.522;7.266;2022-09-09T09:55:55;22.50;92.50
1447;DHT22;717;51.522;7.266;2022-09-09T09:58:23;22.60;92.60
1447;DHT22;717;51.522;7.266;2022-09-09T10:00:52;22.60;92.60
1447;DHT22;717;51.522;7.266;2022-09-09T10:03:26;22.70;92.50
1447;DHT22;717;51.522;7.266;2022-09-09T10:05:53;22.70;92.00
1447;DHT22;717;51.522;7.266;2022-09-09T10:08:22;22.70;91.90
1447;DHT22;717;51.522;7.266;2022-09-09T10:10:59;22.70;91.80
1447;DHT22;717;51.522;7.266;2022-09-09T10:13:33;22.80;91.90
1447;DHT22;717;51.522;7.266;2022-09-09T10:16:13;22.90;91.80
1447;DHT22;717;51.522;7.266;2022-09-09T10:18:57;22.90;91.70
1447;DHT22;717;51.522;7.266;2022-09-09T10:21:36;22.90;91.80
1447;DHT22;717;51.522;7.266;2022-09-09T10:24:19;23.00;91.60
1447;DHT22;717;51.522;7.266;2022-09-09T10:26:55;23.00;91.60
1447;DHT22;717;51.522;7.266;2022-09-09T10:29:47;23.00;91.50
1447;DHT22;717;51.522;7.266;2022-09-09T10:32:33;23.00;91.00
1447;DHT22;717;51.522;7.266;2022-09-09T10:35:10;23.00;91.10
1447;DHT22;717;51.522;7.266;2022-09-09T10:37:48;23.10;90.90
1447;DHT22;717;51.522;7.266;2022-09-09T10:40:28;23.10;91.00
1447;DHT22;717;51.522;7.266;2022-09-09T10:43:04;23.10;91.00
1447;DHT22;717;51.522;7.266;2022-09-09T10:45:45;23.20;90.90
1447;DHT22;717;51.522;7.266;2022-09-09T10:48:28;23.20;90.70
1447;DHT22;717;51.522;7.266;2022-09-09T10:51:05;23.30;90.30
1447;DHT22;717;51.522;7.266;2022-09-09T10:53:44;23.40;90.30
1447;DHT22;717;51.522;7.266;2022-09-09T10:56:15;23.40;89.70
1447;DHT22;717;51.522;7.266;2022-09-09T10:58:47;23.40;89.30
1447;DHT22;717;51.522;7.266;2022-09-09T11:01:20;23.40;89.40
1447;DHT22;717;51.522;7.266;2022-09-09T11:03:53;23.40;88.80
1447;DHT22;717;51.522;7.266;2022-09-09T11:06:26;23.40;88.40
1447;DHT22;717;51.522;7.266;2022-09-09T11:08:57;23.40;88.20
1447;DHT22;717;51.522;7.266;2022-09-09T11:11:29;23.50;88.50
1447;DHT22;717;51.522;7.266;2022-09-09T11:14:03;23.50;88.00
1447;DHT22;717;51.522;7.266;2022-09-09T11:16:36;23.50;87.80
1447;DHT22;717;51.522;7.266;2022-09-09T11:19:13;23.60;87.40
1447;DHT22;717;51.522;7.266;2022-09-09T11:21:44;23.50;87.30
1447;DHT22;717;51.522;7.266;2022-09-09T11:24:15;23.50;87.20
1447;DHT22;717;51.522;7.266;2022-09-09T11:26:47;23.50;87.10
1447;DHT22;717;51.522;7.266;2022-09-09T11:29:46;23.50;87.20
1447;DHT22;717;51.522;7.266;2022-09-09T11:32:27;23.60;87.40
1447;DHT22;717;51.522;7.266;2022-09-09T11:35:02;23.60;87.40
1447;DHT22;717;51.522;7.266;2022-09-09T11:37:48;23.60;87.60
1447;DHT22;717;51.522;7.266;2022-09-09T11:40:22;23.60;87.50
1447;DHT22;717;51.522;7.266;2022-09-09T11:43:01;23.60;87.60
1447;DHT22;717;51.522;7.266;2022-09-09T11:45:30;23.70;87.60
1447;DHT22;717;51.522;7.266;2022-09-09T11:48:00;23.70;87.30
1447;DHT22;717;51.522;7.266;2022-09-09T11:50:32;23.80;87.60
1447;DHT22;717;51.522;7.266;2022-09-09T11:53:16;23.80;87.40
1447;DHT22;717;51.522;7.266;2022-09-09T11:55:46;23.90;87.00
1447;DHT22;717;51.522;7.266;2022-09-09T11:58:17;23.90;87.20
1447;DHT22;717;51.522;7.266;2022-09-09T12:00:46;23.90;87.20
1447;DHT22;717;51.522;7.266;2022-09-09T12:03:33;23.90;87.20
1447;DHT22;717;51.522;7.266;2022-09-09T12:06:10;23.90;87.00
1447;DHT22;717;51.522;7.266;2022-09-09T12:08:42;23.90;86.80
1447;DHT22;717;51.522;7.266;2022-09-09T12:11:10;23.90;87.00
1447;DHT22;717;51.522;7.266;2022-09-09T12:13:37;23.90;86.90
1447;DHT22;717;51.522;7.266;2022-09-09T12:16:04;23.90;86.50
1447;DHT22;717;51.522;7.266;2022-09-09T12:18:33;23.90;86.90
1447;DHT22;717;51.522;7.266;2022-09-09T12:21:05;23.80;86.90
1447;DHT22;717;51.522;7.266;2022-09-09T12:23:42;23.80;87.00
1447;DHT22;717;51.522;7.266;2022-09-09T12:26:21;23.80;87.20
1447;DHT22;717;51.522;7.266;2022-09-09T12:28:59;23.70;87.10
1447;DHT22;717;51.522;7.266;2022-09-09T12:31:33;23.70;87.40
1447;DHT22;717;51.522;7.266;2022-09-09T12:34:10;23.70;87.70
1447;DHT22;717;51.522;7.266;2022-09-09T12:36:40;23.60;87.80
1447;DHT22;717;51.522;7.266;2022-09-09T12:39:18;23.60;87.80
1447;DHT22;717;51.522;7.266;2022-09-09T12:41:52;23.60;88.10
1447;DHT22;717;51.522;7.266;2022-09-09T12:44:23;23.60;88.40
1447;DHT22;717;51.522;7.266;2022-09-09T12:46:51;23.60;88.70
1447;DHT22;717;51.522;7.266;2022-09-09T12:49:28;23.60;88.70
1447;DHT22;717;51.522;7.266;2022-09-09T12:51:56;23.60;88.70
1447;DHT22;717;51.522;7.266;2022-09-09T12:54:25;23.60;88.70
1447;DHT22;717;51.522;7.266;2022-09-09T12:56:52;23.60;88.90
1447;DHT22;717;51.522;7.266;2022-09-09T12:59:24;23.70;88.90
1447;DHT22;717;51.522;7.266;2022-09-09T13:01:57;23.70;88.90
1447;DHT22;717;51.522;7.266;2022-09-09T13:04:25;23.60;88.90
1447;DHT22;717;51.522;7.266;2022-09-09T13:06:52;23.60;89.30
1447;DHT22;717;51.522;7.266;2022-09-09T13:09:19;23.70;89.70
1447;DHT22;717;51.522;7.266;2022-09-09T13:11:50;23.70;89.60
1447;DHT22;717;51.522;7.266;2022-09-09T13:14:23;23.70;89.70
1447;DHT22;717;51.522;7.266;2022-09-09T13:16:55;23.80;89.40
1447;DHT22;717;51.522;7.266;2022-09-09T13:19:23;23.80;89.40
1447;DHT22;717;51.522;7.266;2022-09-09T13:21:53;23.90;89.20
1447;DHT22;717;51.522;7.266;2022-09-09T13:24:30;23.90;88.90
1447;DHT22;717;51.522;7.266;2022-09-09T13:27:00;23.90;89.00
1447;DHT22;717;51.522;7.266;2022-09-09T13:29:28;23.90;88.90
1447;DHT22;717;51.522;7.266;2022-09-09T13:32:03;23.90;88.70
1447;DHT22;717;51.522;7.266;2022-09-09T13:34:33;23.90;88.50
1447;DHT22;717;51.522;7.266;2022-09-09T13:37:02;23.90;88.60
1447;DHT22;717;51.522;7.266;2022-09-09T13:39:32;23.90;88.70
1447;DHT22;717;51.522;7.266;2022-09-09T13:42:02;23.90;88.70
1447;DHT22;717;51.522;7.266;2022-09-09T13:44:33;23.80;88.60
1447;DHT22;717;51.522;7.266;2022-09-09T13:47:03;23.80;88.70
1447;DHT22;717;51.522;7.266;2022-09-09T13:49:31;23.80;88.70
1447;DHT22;717;51.522;7.266;2022-09-09T13:52:09;23.80;88.90
1447;DHT22;717;51.522;7.266;2022-09-09T13:54:36;23.70;89.00
1447;DHT22;717;51.522;7.266;2022-09-09T13:57:05;23.70;89.30
1447;DHT22;717;51.522;7.266;2022-09-09T13:59:31;23.70;90.00
1447;DHT22;717;51.522;7.266;2022-09-09T14:01:58;23.60;90.20
1447;DHT22;717;51.522;7.266;2022-09-09T14:04:27;23.60;90.70
1447;DHT22;717;51.522;7.266;2022-09-09T14:06:55;23.50;91.20
1447;DHT22;717;51.522;7.266;2022-09-09T14:09:22;23.40;91.60
1447;DHT22;717;51.522;7.266;2022-09-09T14:11:48;23.30;91.80
1447;DHT22;717;51.522;7.266;2022-09-09T14:14:16;23.20;92.20
1447;DHT22;717;51.522;7.266;2022-09-09T14:16:43;23.00;92.60
1447;DHT22;717;51.522;7.266;2022-09-09T14:19:10;23.00;92.90
1447;DHT22;717;51.522;7.266;2022-09-09T14:21:36;22.90;93.10
1447;DHT22;717;51.522;7.266;2022-09-09T14:24:04;22.90;93.20
1447;DHT22;717;51.522;7.266;2022-09-09T14:26:31;22.90;93.50
1447;DHT22;717;51.522;7.266;2022-09-09T14:28:58;22.90;93.70
1447;DHT22;717;51.522;7.266;2022-09-09T14:31:27;23.00;94.00
1447;DHT22;717;51.522;7.266;2022-09-09T14:33:54;23.00;94.50
1447;DHT22;717;51.522;7.266;2022-09-09T14:36:21;23.00;94.50
1447;DHT22;717;51.522;7.266;2022-09-09T14:38:48;23.00;94.60
1447;DHT22;717;51.522;7.266;2022-09-09T14:41:16;23.10;94.50
1447;DHT22;717;51.522;7.266;2022-09-09T14:43:44;23.10;94.50
1447;DHT22;717;51.522;7.266;2022-09-09T14:46:13;23.10;94.40
1447;DHT22;717;51.522;7.266;2022-09-09T14:48:41;23.00;94.20
1447;DHT22;717;51.522;7.266;2022-09-09T14:51:10;23.00;94.30
1447;DHT22;717;51.522;7.266;2022-09-09T14:53:38;23.00;94.30
1447;DHT22;717;51.522;7.266;2022-09-09T14:56:06;23.00;94.30
1447;DHT22;717;51.522;7.266;2022-09-09T14:58:34;23.10;94.30
1447;DHT22;717;51.522;7.266;2022-09-09T15:01:05;23.10;94.30
1447;DHT22;717;51.522;7.266;2022-09-09T15:03:32;23.10;94.50
1447;DHT22;717;51.522;7.266;2022-09-09T15:06:06;23.20;94.40
1447;DHT22;717;51.522;7.266;2022-09-09T15:08:34;23.20;94.30
1447;DHT22;717;51.522;7.266;2022-09-09T15:11:01;23.30;94.20
1447;DHT22;717;51.522;7.266;2022-09-09T15:13:28;23.30;94.10
1447;DHT22;717;51.522;7.266;2022-09-09T15:15:55;23.30;93.80
1447;DHT22;717;51.522;7.266;2022-09-09T15:18:22;23.40;93.60
1447;DHT22;717;51.522;7.266;2022-09-09T15:20:49;23.30;93.40
1447;DHT22;717;51.522;7.266;2022-09-09T15:23:17;23.30;93.30
1447;DHT22;717;51.522;7.266;2022-09-09T15:25:51;23.30;93.20
1447;DHT22;717;51.522;7.266;2022-09-09T15:28:18;23.30;94.10
1447;DHT22;717;51.522;7.266;2022-09-09T15:30:47;23.20;94.70
1447;DHT22;717;51.522;7.266;2022-09-09T15:33:14;22.70;95.70
1447;DHT22;717;51.522;7.266;2022-09-09T15:35:41;22.40;97.10
1447;DHT22;717;51.522;7.266;2022-09-09T15:38:08;22.10;97.60
1447;DHT22;717;51.522;7.266;2022-09-09T15:40:36;21.70;98.20
1447;DHT22;717;51.522;7.266;2022-09-09T15:43:03;21.60;98.80
1447;DHT22;717;51.522;7.266;2022-09-09T15:45:31;21.40;99.60
1447;DHT22;717;51.522;7.266;2022-09-09T15:47:59;21.30;99.90
1447;DHT22;717;51.522;7.266;2022-09-09T15:50:26;21.20;99.90
1447;DHT22;717;51.522;7.266;2022-09-09T15:52:52;21.10;99.90
1447;DHT22;717;51.522;7.266;2022-09-09T15:55:19;21.10;99.90
1447;DHT22;717;51.522;7.266;2022-09-09T15:57:48;21.00;99.90
1447;DHT22;717;51.522;7.266;2022-09-09T16:00:15;21.00;99.90
1447;DHT22;717;51.522;7.266;2022-09-09T16:02:42;20.90;99.90
1447;DHT22;717;51.522;7.266;2022-09-09T16:05:09;20.90;99.90
1447;DHT22;717;51.522;7.266;2022-09-09T16:07:35;20.80;99.90
1447;DHT22;717;51.522;7.266;2022-09-09T16:10:02;20.80;99.90
1447;DHT22;717;51.522;7.266;2022-09-09T16:12:29;20.80;99.90
1447;DHT22;717;51.522;7.266;2022-09-09T16:14:57;20.80;99.90
1447;DHT22;717;51.522;7.266;2022-09-09T16:17:25;20.80;99.90
1447;DHT22;717;51.522;7.266;2022-09-09T16:19:53;20.80;99.90
1447;DHT22;717;51.522;7.266;2022-09-09T16:22:20;20.80;99.90
1447;DHT22;717;51.522;7.266;2022-09-09T16:24:46;20.80;99.90
1447;DHT22;717;51.522;7.266;2022-09-09T16:27:13;20.80;99.90
1447;DHT22;717;51.522;7.266;2022-09-09T16:29:40;20.80;99.90
1447;DHT22;717;51.522;7.266;2022-09-09T16:32:08;20.80;99.90
1447;DHT22;717;51.522;7.266;2022-09-09T16:34:36;20.80;99.90
1447;DHT22;717;51.522;7.266;2022-09-09T16:37:03;20.80;99.90
1447;DHT22;717;51.522;7.266;2022-09-09T16:39:30;20.90;99.90
1447;DHT22;717;51.522;7.266;2022-09-09T16:41:57;20.90;99.90